Superferry II — SWKV — position and weather

sailwx.info

Track history (hours):
 
Tides and Currents Weather Stations Pressure Air Temp Water Temp Dewpoint Dewpoint Depression Visibility Wind Speed Wind Dir Waves Ship Positions

Superferry II

Last reported at 2016-Jun-01 05:24 UTC. Time now 2016-Jun-01 07:29 UTC.
Position N 37°59' E 024°12'.

Length 122 m; draft 4.7 m.

Type: Passenger vessel. MMSI: 237001000.

Date/timePositionNaut miles runAvg speedWind from/ knotsBaromVisibWave heightAir tempDewpointWater temp
2016-Jun-01 05:24N 37°59' E 024°12'9 0.7
2016-May-31 15:28N 38°01' E 024°01'5115.4
2016-May-31 12:10N 37°38' E 024°59'1016.8
2016-May-31 11:33N 37°32' E 025°09'9 9.1
2016-May-31 10:33N 37°28' E 025°19'0 0.0
2016-May-31 09:33N 37°28' E 025°19'71 8.8
2016-May-31 01:32N 38°01' E 024°01'0 0.0
2016-May-30 23:31N 38°01' E 024°01'0 0.0
2016-May-30 21:16N 38°01' E 024°01'0 0.1
2016-May-30 15:29N 38°01' E 024°01'5315.9
2016-May-30 12:09N 37°37' E 025°00'814.3
2016-May-30 11:33N 37°32' E 025°09'9 9.1
2016-May-30 10:33N 37°28' E 025°19'0 0.0
2016-May-30 09:33N 37°28' E 025°19'9 9.1
2016-May-30 08:33N 37°32' E 025°09'5016.3
2016-May-30 05:28N 37°58' E 024°15'11 5.8
2016-May-30 03:30N 38°01' E 024°01'0 0.0
2016-May-30 02:33N 38°01' E 024°01'0 0.0
2016-May-30 01:31N 38°01' E 024°01'0 0.0
2016-May-30 00:32N 38°01' E 024°01'0 0.0
2016-May-29 23:34N 38°01' E 024°01'0 0.0
2016-May-29 22:32N 38°01' E 024°01'1 0.6
2016-May-29 20:34N 38°01' E 024°02'1918.4
2016-May-29 19:32N 37°56' E 024°25'14 9.6
2016-May-29 18:06N 37°52' E 024°42'2918.8
2016-May-29 16:33N 38°00' E 024°07'4 3.9
2016-May-29 15:26N 38°01' E 024°01'6115.8
2016-May-29 11:33N 37°32' E 025°09'9 9.1
2016-May-29 10:34N 37°28' E 025°19'0 0.0
2016-May-29 09:34N 37°28' E 025°19'9 9.2
2016-May-29 08:33N 37°32' E 025°09'4816.1
2016-May-29 05:33N 37°57' E 024°17'13 1.0
2016-May-28 15:26N 38°01' E 024°01'6215.9
2016-May-28 11:34N 37°32' E 025°09'9 9.0
2016-May-28 10:33N 37°28' E 025°19'0 0.1
2016-May-28 09:33N 37°28' E 025°19'6014.9
2016-May-28 05:32N 37°58' E 024°14'10 1.2
2016-May-27 20:34N 38°01' E 024°02'1818.4
2016-May-27 19:34N 37°55' E 024°24'1612.8
2016-May-27 18:19N 37°53' E 024°44'1417.7
2016-May-27 17:33N 37°55' E 024°27'1918.9
2016-May-27 16:33N 38°01' E 024°04'3 2.2
2016-May-27 15:25N 38°01' E 024°01'6115.9
2016-May-27 11:33N 37°32' E 025°09'9 9.1
2016-May-27 10:33N 37°28' E 025°19'0 0.0
2016-May-27 09:33N 37°28' E 025°19'6014.9
2016-May-27 05:32N 37°58' E 024°14'11 0.8
2016-May-26 15:27N 38°01' E 024°01'6115.7
2016-May-26 11:33N 37°32' E 025°09'9 9.1
2016-May-26 10:33N 37°28' E 025°19'0 0.3
2016-May-26 09:34N 37°28' E 025°19'6114.7
2016-May-26 05:23N 37°59' E 024°12'9 0.6
2016-May-25 15:28N 38°01' E 024°01'5215.6
2016-May-25 12:08N 37°37' E 024°60'915.6
2016-May-25 11:33N 37°32' E 025°09'9 9.2
2016-May-25 10:33N 37°28' E 025°19'0 0.0
2016-May-25 09:33N 37°28' E 025°19'6014.9
2016-May-25 05:31N 37°58' E 024°14'11 4.5
2016-May-25 03:05N 38°01' E 024°01'0 0.0
2016-May-24 19:22N 38°01' E 024°01'1 0.3
2016-May-24 15:23N 38°01' E 024°02'3415.1
2016-May-24 13:06N 37°52' E 024°44'2019.2
2016-May-24 12:05N 37°37' E 025°00'916.5
2016-May-24 11:33N 37°32' E 025°09'9 9.1
2016-May-24 10:33N 37°28' E 025°19'0 0.0
2016-May-24 09:31N 37°28' E 025°19'1313.1
2016-May-24 08:30N 37°34' E 025°05'4615.6
2016-May-24 05:33N 37°58' E 024°15'12 1.7
2016-May-23 22:27N 38°01' E 024°01'0 0.0
2016-May-23 15:22N 38°01' E 024°01'5316.1
2016-May-23 12:04N 37°37' E 025°01'816.1
2016-May-23 11:33N 37°32' E 025°09'9 9.1
2016-May-23 10:33N 37°28' E 025°19'0 0.0
2016-May-23 09:33N 37°28' E 025°19'9 9.3
2016-May-23 08:33N 37°32' E 025°09'5116.4
2016-May-23 05:28N 37°58' E 024°14'11 1.2
2016-May-22 20:33N 38°01' E 024°01'1717.3
2016-May-22 19:33N 37°56' E 024°22'1817.8
2016-May-22 18:33N 37°53' E 024°44'1412.4
2016-May-22 17:26N 37°55' E 024°27'1718.7
2016-May-22 16:33N 37°60' E 024°07'4 3.6
2016-May-22 15:24N 38°01' E 024°02'6115.9
2016-May-22 11:33N 37°32' E 025°09'9 9.1
2016-May-22 10:33N 37°28' E 025°19'0 0.0
2016-May-22 09:33N 37°28' E 025°19'10 9.6
2016-May-22 08:33N 37°32' E 025°08'2018.8
2016-May-22 07:30N 37°46' E 024°50'3215.1
2016-May-22 05:24N 37°58' E 024°13'  
Track history (hours):
 
Tides and Currents Weather Stations Pressure Air Temp Water Temp Dewpoint Dewpoint Depression Visibility Wind Speed Wind Dir Waves Ship Positions

Superferry II

Last reported at 2016-Jun-01 05:24 UTC. Time now 2016-Jun-01 07:29 UTC.
Position N 37°59' E 024°12'.

Length 122 m; draft 4.7 m.

Type: Passenger vessel. MMSI: 237001000.

Date/timePositionNaut miles runAvg speedWind from/ knotsBaromVisibWave heightAir tempDewpointWater temp
2016-Jun-01 05:24N 37°59' E 024°12'9 0.7
2016-May-31 15:28N 38°01' E 024°01'5115.4
2016-May-31 12:10N 37°38' E 024°59'1016.8
2016-May-31 11:33N 37°32' E 025°09'9 9.1
2016-May-31 10:33N 37°28' E 025°19'0 0.0
2016-May-31 09:33N 37°28' E 025°19'71 8.8
2016-May-31 01:32N 38°01' E 024°01'0 0.0
2016-May-30 23:31N 38°01' E 024°01'0 0.0
2016-May-30 21:16N 38°01' E 024°01'0 0.1
2016-May-30 15:29N 38°01' E 024°01'5315.9
2016-May-30 12:09N 37°37' E 025°00'814.3
2016-May-30 11:33N 37°32' E 025°09'9 9.1
2016-May-30 10:33N 37°28' E 025°19'0 0.0
2016-May-30 09:33N 37°28' E 025°19'9 9.1
2016-May-30 08:33N 37°32' E 025°09'5016.3
2016-May-30 05:28N 37°58' E 024°15'11 5.8
2016-May-30 03:30N 38°01' E 024°01'0 0.0
2016-May-30 02:33N 38°01' E 024°01'0 0.0
2016-May-30 01:31N 38°01' E 024°01'0 0.0
2016-May-30 00:32N 38°01' E 024°01'0 0.0
2016-May-29 23:34N 38°01' E 024°01'0 0.0
2016-May-29 22:32N 38°01' E 024°01'1 0.6
2016-May-29 20:34N 38°01' E 024°02'1918.4
2016-May-29 19:32N 37°56' E 024°25'14 9.6
2016-May-29 18:06N 37°52' E 024°42'2918.8
2016-May-29 16:33N 38°00' E 024°07'4 3.9
2016-May-29 15:26N 38°01' E 024°01'6115.8
2016-May-29 11:33N 37°32' E 025°09'9 9.1
2016-May-29 10:34N 37°28' E 025°19'0 0.0
2016-May-29 09:34N 37°28' E 025°19'9 9.2
2016-May-29 08:33N 37°32' E 025°09'4816.1
2016-May-29 05:33N 37°57' E 024°17'13 1.0
2016-May-28 15:26N 38°01' E 024°01'6215.9
2016-May-28 11:34N 37°32' E 025°09'9 9.0
2016-May-28 10:33N 37°28' E 025°19'0 0.1
2016-May-28 09:33N 37°28' E 025°19'6014.9
2016-May-28 05:32N 37°58' E 024°14'10 1.2
2016-May-27 20:34N 38°01' E 024°02'1818.4
2016-May-27 19:34N 37°55' E 024°24'1612.8
2016-May-27 18:19N 37°53' E 024°44'1417.7
2016-May-27 17:33N 37°55' E 024°27'1918.9
2016-May-27 16:33N 38°01' E 024°04'3 2.2
2016-May-27 15:25N 38°01' E 024°01'6115.9
2016-May-27 11:33N 37°32' E 025°09'9 9.1
2016-May-27 10:33N 37°28' E 025°19'0 0.0
2016-May-27 09:33N 37°28' E 025°19'6014.9
2016-May-27 05:32N 37°58' E 024°14'11 0.8
2016-May-26 15:27N 38°01' E 024°01'6115.7
2016-May-26 11:33N 37°32' E 025°09'9 9.1
2016-May-26 10:33N 37°28' E 025°19'0 0.3
2016-May-26 09:34N 37°28' E 025°19'6114.7
2016-May-26 05:23N 37°59' E 024°12'9 0.6
2016-May-25 15:28N 38°01' E 024°01'5215.6
2016-May-25 12:08N 37°37' E 024°60'915.6
2016-May-25 11:33N 37°32' E 025°09'9 9.2
2016-May-25 10:33N 37°28' E 025°19'0 0.0
2016-May-25 09:33N 37°28' E 025°19'6014.9
2016-May-25 05:31N 37°58' E 024°14'11 4.5
2016-May-25 03:05N 38°01' E 024°01'0 0.0
2016-May-24 19:22N 38°01' E 024°01'1 0.3
2016-May-24 15:23N 38°01' E 024°02'3415.1
2016-May-24 13:06N 37°52' E 024°44'2019.2
2016-May-24 12:05N 37°37' E 025°00'916.5
2016-May-24 11:33N 37°32' E 025°09'9 9.1
2016-May-24 10:33N 37°28' E 025°19'0 0.0
2016-May-24 09:31N 37°28' E 025°19'1313.1
2016-May-24 08:30N 37°34' E 025°05'4615.6
2016-May-24 05:33N 37°58' E 024°15'12 1.7
2016-May-23 22:27N 38°01' E 024°01'0 0.0
2016-May-23 15:22N 38°01' E 024°01'5316.1
2016-May-23 12:04N 37°37' E 025°01'816.1
2016-May-23 11:33N 37°32' E 025°09'9 9.1
2016-May-23 10:33N 37°28' E 025°19'0 0.0
2016-May-23 09:33N 37°28' E 025°19'9 9.3
2016-May-23 08:33N 37°32' E 025°09'5116.4
2016-May-23 05:28N 37°58' E 024°14'11 1.2
2016-May-22 20:33N 38°01' E 024°01'1717.3
2016-May-22 19:33N 37°56' E 024°22'1817.8
2016-May-22 18:33N 37°53' E 024°44'1412.4
2016-May-22 17:26N 37°55' E 024°27'1718.7
2016-May-22 16:33N 37°60' E 024°07'4 3.6
2016-May-22 15:24N 38°01' E 024°02'6115.9
2016-May-22 11:33N 37°32' E 025°09'9 9.1
2016-May-22 10:33N 37°28' E 025°19'0 0.0
2016-May-22 09:33N 37°28' E 025°19'10 9.6
2016-May-22 08:33N 37°32' E 025°08'2018.8
2016-May-22 07:30N 37°46' E 024°50'3215.1
2016-May-22 05:24N 37°58' E 024°13'  

Dump ship's entire track history